createdAt,value
2024-04-06T00:00:10.726Z,101232.47
2024-04-06T00:02:42.542Z,101235.84
2024-04-06T00:05:11.062Z,101231.09
2024-04-06T00:07:38.145Z,101224.44
2024-04-06T00:10:06.382Z,101226.56
2024-04-06T00:12:46.651Z,101220.00
2024-04-06T00:15:13.786Z,101221.84
2024-04-06T00:17:41.752Z,101222.94
2024-04-06T00:20:09.225Z,101216.00
2024-04-06T00:22:36.340Z,101221.28
2024-04-06T00:25:05.175Z,101221.19
2024-04-06T00:27:34.094Z,101219.91
2024-04-06T00:30:04.405Z,101220.66
2024-04-06T00:32:31.966Z,101226.06
2024-04-06T00:34:59.973Z,101221.50
2024-04-06T00:37:27.198Z,101221.41
2024-04-06T00:39:54.428Z,101227.56
2024-04-06T00:42:21.669Z,101228.22
2024-04-06T00:44:48.843Z,101230.69
2024-04-06T00:47:20.116Z,101231.25
2024-04-06T00:49:47.313Z,101219.28
2024-04-06T00:52:14.431Z,101218.09
2024-04-06T00:54:57.229Z,101215.16
2024-04-06T00:57:24.535Z,101214.84
2024-04-06T00:59:52.705Z,101221.84
2024-04-06T01:02:24.293Z,101216.38
2024-04-06T01:04:56.191Z,101214.50
2024-04-06T01:07:24.006Z,101222.72
2024-04-06T01:09:52.223Z,101210.31
2024-04-06T01:12:20.498Z,101205.63
2024-04-06T01:14:48.071Z,101202.84
2024-04-06T01:17:17.019Z,101205.44
2024-04-06T01:19:48.306Z,101202.63
2024-04-06T01:22:15.448Z,101202.41
2024-04-06T01:24:46.928Z,101209.53
2024-04-06T01:27:14.060Z,101213.00
2024-04-06T01:29:41.451Z,101209.34
2024-04-06T01:32:09.801Z,101209.22
2024-04-06T01:34:38.746Z,101198.84
2024-04-06T01:37:21.771Z,101208.53
2024-04-06T01:39:51.833Z,101213.72
2024-04-06T01:42:18.956Z,101213.53
2024-04-06T01:44:46.447Z,101205.94
2024-04-06T01:47:13.578Z,101195.66
2024-04-06T01:49:41.986Z,101201.72
2024-04-06T01:52:09.544Z,101194.13
2024-04-06T01:54:37.836Z,101201.25
2024-04-06T01:57:07.530Z,101210.00
2024-04-06T01:59:36.467Z,101203.84
2024-04-06T02:02:05.974Z,101206.19
2024-04-06T02:04:33.227Z,101217.78
2024-04-06T02:07:00.879Z,101210.78
2024-04-06T02:09:28.010Z,101203.63
2024-04-06T02:12:12.016Z,101204.72
2024-04-06T02:14:49.159Z,101190.03
2024-04-06T02:17:17.584Z,101192.22
2024-04-06T02:19:44.922Z,101194.38
2024-04-06T02:22:12.033Z,101188.88
2024-04-06T02:24:39.536Z,101192.75
2024-04-06T02:27:06.879Z,101189.09
2024-04-06T02:29:34.030Z,101186.81
2024-04-06T02:32:04.367Z,101183.97
2024-04-06T02:34:31.818Z,101181.16
2024-04-06T02:36:59.470Z,101183.13
2024-04-06T02:39:27.034Z,101189.94
2024-04-06T02:41:54.230Z,101182.94
2024-04-06T02:44:22.082Z,101180.69
2024-04-06T02:46:50.333Z,101181.63
2024-04-06T02:49:23.387Z,101184.91
2024-04-06T02:51:51.560Z,101186.09
2024-04-06T02:54:35.112Z,101183.72
2024-04-06T02:57:02.228Z,101197.66
2024-04-06T02:59:29.376Z,101197.03
2024-04-06T03:01:56.952Z,101196.38
2024-04-06T03:04:26.586Z,101190.22
2024-04-06T03:06:53.687Z,101190.75
2024-04-06T03:09:20.785Z,101187.50
2024-04-06T03:11:47.922Z,101179.09
2024-04-06T03:14:15.076Z,101176.47
2024-04-06T03:16:42.169Z,101179.16
2024-04-06T03:19:09.763Z,101172.03
2024-04-06T03:21:39.468Z,101167.91
2024-04-06T03:24:07.869Z,101159.59
2024-04-06T03:26:35.525Z,101166.06
2024-04-06T03:29:02.647Z,101154.72
2024-04-06T03:31:30.331Z,101161.97
2024-04-06T03:33:58.175Z,101155.19
2024-04-06T03:36:42.721Z,101162.13
2024-04-06T03:39:09.914Z,101169.56
2024-04-06T03:41:37.059Z,101157.34
2024-04-06T03:44:04.608Z,101152.28
2024-04-06T03:46:32.085Z,101161.69
2024-04-06T03:48:59.221Z,101163.09
2024-04-06T03:51:26.303Z,101160.84
2024-04-06T03:53:55.841Z,101160.94
2024-04-06T03:56:22.977Z,101150.38
2024-04-06T03:58:52.475Z,101151.44
2024-04-06T04:01:19.863Z,101159.88
2024-04-06T04:03:47.411Z,101154.47
2024-04-06T04:06:16.163Z,101153.81
2024-04-06T04:08:44.972Z,101144.97
2024-04-06T04:11:15.077Z,101145.19
2024-04-06T04:13:42.797Z,101143.75
2024-04-06T04:16:10.446Z,101142.38
2024-04-06T04:18:53.330Z,101141.72
2024-04-06T04:21:20.435Z,101142.88
2024-04-06T04:23:47.570Z,101137.81
2024-04-06T04:26:17.129Z,101129.84
2024-04-06T04:28:44.550Z,101131.66
2024-04-06T04:31:16.426Z,101137.38
2024-04-06T04:33:44.024Z,101136.41
2024-04-06T04:36:14.070Z,101132.75
2024-04-06T04:38:41.251Z,101117.00
2024-04-06T04:41:08.780Z,101120.25
2024-04-06T04:43:38.407Z,101115.16
2024-04-06T04:46:06.008Z,101111.06
2024-04-06T04:48:53.468Z,101103.19
2024-04-06T04:51:21.800Z,101093.56
2024-04-06T04:54:00.895Z,101098.75
2024-04-06T04:56:28.001Z,101097.84
2024-04-06T04:58:57.719Z,101086.47
2024-04-06T05:01:24.927Z,101090.66
2024-04-06T05:03:52.113Z,101084.53
2024-04-06T05:06:19.250Z,101087.69
2024-04-06T05:08:46.355Z,101088.22
2024-04-06T05:11:16.670Z,101090.44
2024-04-06T05:13:44.483Z,101093.78
2024-04-06T05:16:14.497Z,101092.56
2024-04-06T05:18:41.635Z,101090.47
2024-04-06T05:21:09.746Z,101097.63
2024-04-06T05:23:36.939Z,101086.69
2024-04-06T05:26:05.055Z,101089.06
2024-04-06T05:28:32.864Z,101082.47
2024-04-06T05:31:00.614Z,101076.59
2024-04-06T05:33:30.196Z,101079.69
2024-04-06T05:36:18.042Z,101084.97
2024-04-06T05:38:46.758Z,101077.38
2024-04-06T05:41:13.646Z,101082.34
2024-04-06T05:43:42.048Z,101083.81
2024-04-06T05:46:09.350Z,101071.66
2024-04-06T05:48:41.570Z,101055.81
2024-04-06T05:51:08.711Z,101069.59
2024-04-06T05:53:36.494Z,101068.88
2024-04-06T05:56:04.096Z,101062.00
2024-04-06T05:58:33.551Z,101071.97
2024-04-06T06:01:02.581Z,101073.72
2024-04-06T06:03:30.174Z,101069.16
2024-04-06T06:06:00.296Z,101085.31
2024-04-06T06:08:27.953Z,101081.97
2024-04-06T06:10:55.081Z,101082.19
2024-04-06T06:13:23.996Z,101079.72
2024-04-06T06:15:51.771Z,101081.13
2024-04-06T06:18:29.198Z,101095.75
2024-04-06T06:20:56.329Z,101099.84
2024-04-06T06:23:25.976Z,101106.34
2024-04-06T06:25:53.131Z,101104.59
2024-04-06T06:28:20.279Z,101101.59
2024-04-06T06:30:48.019Z,101099.69
2024-04-06T06:33:15.126Z,101104.84
2024-04-06T06:38:27.939Z,101116.75
2024-04-06T06:40:55.082Z,101107.59
2024-04-06T06:43:26.143Z,101107.69
2024-04-06T06:45:53.219Z,101104.69
2024-04-06T06:48:20.304Z,101110.81
2024-04-06T06:50:48.036Z,101097.38
2024-04-06T06:53:56.266Z,101095.09
2024-04-06T06:56:25.875Z,101070.97
2024-04-06T06:58:53.160Z,101085.41
2024-04-06T07:01:20.284Z,101083.75
2024-04-06T07:03:47.437Z,101059.47
2024-04-06T07:07:06.538Z,101062.56
2024-04-06T07:09:03.272Z,101059.84
2024-04-06T07:11:32.977Z,101057.00
2024-04-06T07:14:00.824Z,101044.88
2024-04-06T07:16:29.973Z,101046.03
2024-04-06T07:18:57.099Z,101042.50
2024-04-06T07:21:53.285Z,101035.91
2024-04-06T07:24:22.559Z,101027.84
2024-04-06T07:26:52.232Z,101022.47
2024-04-06T07:29:20.452Z,101020.75
2024-04-06T07:31:47.551Z,101021.22
2024-04-06T07:34:14.721Z,101013.09
2024-04-06T07:36:42.156Z,101009.53
2024-04-06T07:41:46.340Z,100988.41
2024-04-06T07:44:20.193Z,100993.28
2024-04-06T07:46:47.469Z,100985.75
2024-04-06T07:49:14.614Z,100990.91
2024-04-06T07:51:46.799Z,100980.59
2024-04-06T07:54:14.613Z,100988.38
2024-04-06T07:56:56.631Z,100984.25
2024-04-06T07:59:26.199Z,100979.06
2024-04-06T08:01:53.409Z,100984.38
2024-04-06T08:04:20.512Z,100975.09
2024-04-06T08:06:47.604Z,100973.81
2024-04-06T08:09:14.733Z,100963.44
2024-04-06T08:11:46.244Z,100971.28
2024-04-06T08:14:20.896Z,100953.94
2024-04-06T08:17:06.880Z,100955.53
2024-04-06T08:19:34.416Z,100947.25
2024-04-06T08:22:02.919Z,100949.91
2024-04-06T08:24:29.986Z,100938.88
2024-04-06T08:27:00.588Z,100936.88
2024-04-06T08:29:28.514Z,100938.44
2024-04-06T08:32:11.247Z,100938.53
2024-04-06T08:34:38.873Z,100923.69
2024-04-06T08:37:08.241Z,100932.00
2024-04-06T08:39:35.338Z,100933.66
2024-04-06T08:42:03.345Z,100929.91
2024-04-06T08:44:40.729Z,100926.19
2024-04-06T08:47:13.792Z,100921.91
2024-04-06T08:49:42.025Z,100931.13
2024-04-06T08:52:10.547Z,100921.94
2024-04-06T08:54:38.287Z,100915.91
2024-04-06T08:57:05.849Z,100926.47
2024-04-06T08:59:34.194Z,100921.56
2024-04-06T09:02:01.598Z,100914.53
2024-04-06T09:04:31.471Z,100922.56
2024-04-06T09:07:11.894Z,100919.72
2024-04-06T09:09:40.126Z,100919.00
2024-04-06T09:12:09.079Z,100918.94
2024-04-06T09:14:40.454Z,100918.72
2024-04-06T09:17:10.516Z,100909.09
2024-04-06T09:19:40.104Z,100909.66
2024-04-06T09:22:07.281Z,100912.34
2024-04-06T09:24:34.616Z,100897.50
2024-04-06T09:27:06.302Z,100903.53
2024-04-06T09:29:33.455Z,100892.38
2024-04-06T09:32:11.815Z,100883.53
2024-04-06T09:34:49.429Z,100870.06
2024-04-06T09:37:20.931Z,100866.19
2024-04-06T09:39:49.157Z,100858.13
2024-04-06T09:42:18.416Z,100843.25
2024-04-06T09:44:45.636Z,100846.25
2024-04-06T09:47:15.352Z,100834.34
2024-04-06T09:49:45.955Z,100835.81
2024-04-06T09:52:17.324Z,100836.84
2024-04-06T09:54:44.694Z,100834.75
2024-04-06T09:57:13.640Z,100835.81
2024-04-06T09:59:41.326Z,100834.53
2024-04-06T10:02:09.260Z,100830.41
2024-04-06T10:04:36.831Z,100828.41
2024-04-06T10:07:07.585Z,100821.41
2024-04-06T10:09:38.787Z,100811.59
2024-04-06T10:12:10.143Z,100815.34
2024-04-06T10:14:45.298Z,100804.53
2024-04-06T10:17:41.567Z,100803.69
2024-04-06T10:20:11.379Z,100803.41
2024-04-06T10:22:51.610Z,100804.78
2024-04-06T10:25:24.309Z,100800.66
2024-04-06T10:28:00.054Z,100807.50
2024-04-06T10:30:28.356Z,100821.47
2024-04-06T10:32:55.623Z,100824.91
2024-04-06T10:35:23.227Z,100814.97
2024-04-06T10:37:53.608Z,100810.41
2024-04-06T10:40:24.425Z,100816.31
2024-04-06T10:42:51.975Z,100815.69
2024-04-06T10:45:32.412Z,100799.63
2024-04-06T10:47:59.777Z,100803.63
2024-04-06T10:50:26.967Z,100796.41
2024-04-06T10:52:56.689Z,100789.59
2024-04-06T10:55:24.097Z,100786.47
2024-04-06T10:57:51.312Z,100783.41
2024-04-06T11:00:19.316Z,100782.31
2024-04-06T11:02:46.388Z,100781.91
2024-04-06T11:05:13.493Z,100770.16
2024-04-06T11:07:42.270Z,100753.31
2024-04-06T11:10:12.194Z,100752.78
2024-04-06T11:12:39.913Z,100736.69
2024-04-06T11:15:08.822Z,100736.06
2024-04-06T11:17:36.253Z,100731.34
2024-04-06T11:20:05.166Z,100727.94
2024-04-06T11:22:32.263Z,100735.72
2024-04-06T11:24:59.869Z,100727.63
2024-04-06T11:27:29.569Z,100729.06
2024-04-06T11:30:01.174Z,100721.50
2024-04-06T11:32:30.161Z,100734.25
2024-04-06T11:34:57.464Z,100714.97
2024-04-06T11:37:25.687Z,100723.53
2024-04-06T11:39:52.850Z,100720.78
2024-04-06T11:42:19.975Z,100714.88
2024-04-06T11:44:49.567Z,100726.16
2024-04-06T11:47:16.696Z,100726.59
2024-04-06T11:49:43.902Z,100720.31
2024-04-06T11:52:11.072Z,100723.31
2024-04-06T11:54:38.575Z,100720.75
2024-04-06T11:57:06.015Z,100723.84
2024-04-06T11:59:33.110Z,100716.38
2024-04-06T12:02:02.844Z,100708.31
2024-04-06T12:04:32.753Z,100710.47
2024-04-06T12:07:01.384Z,100700.88
2024-04-06T12:09:28.547Z,100707.88
2024-04-06T12:11:59.169Z,100702.13
2024-04-06T12:14:26.493Z,100696.38
2024-04-06T12:16:54.577Z,100679.44
2024-04-06T12:19:26.971Z,100684.00
2024-04-06T12:21:54.485Z,100694.41
2024-04-06T12:24:21.784Z,100710.56
2024-04-06T12:26:48.919Z,100718.00
2024-04-06T12:29:16.043Z,100730.31
2024-04-06T12:31:43.140Z,100733.91
2024-04-06T12:34:10.258Z,100740.72
2024-04-06T12:36:39.923Z,100733.09
2024-04-06T12:39:10.369Z,100739.88
2024-04-06T12:41:37.496Z,100740.50
2024-04-06T12:44:05.054Z,100743.66
2024-04-06T12:46:32.240Z,100735.00
2024-04-06T12:48:59.339Z,100751.19
2024-04-06T12:51:29.430Z,100755.63
2024-04-06T12:53:59.055Z,100760.97
2024-04-06T12:56:26.957Z,100748.59
2024-04-06T12:58:53.957Z,100752.22
2024-04-06T13:01:21.093Z,100761.38
2024-04-06T13:03:59.726Z,100753.72
2024-04-06T13:06:32.111Z,100754.56
2024-04-06T13:09:01.523Z,100756.88
2024-04-06T13:11:28.635Z,100756.44
2024-04-06T13:13:55.754Z,100759.88
2024-04-06T13:16:22.987Z,100756.88
2024-04-06T13:18:50.118Z,100763.63
2024-04-06T13:21:17.626Z,100761.31
2024-04-06T13:23:44.715Z,100773.63
2024-04-06T13:26:14.391Z,100775.53
2024-04-06T13:28:41.594Z,100761.06
2024-04-06T13:31:09.175Z,100768.97
2024-04-06T13:33:37.833Z,100771.09
2024-04-06T13:36:06.048Z,100751.47
2024-04-06T13:38:33.235Z,100765.22
2024-04-06T13:41:00.335Z,100749.94
2024-04-06T13:43:30.227Z,100750.50
2024-04-06T13:45:58.950Z,100744.34
2024-04-06T13:48:26.146Z,100742.22
2024-04-06T13:50:55.652Z,100747.38
2024-04-06T13:53:22.999Z,100737.38
2024-04-06T13:55:50.323Z,100739.00
2024-04-06T13:58:17.570Z,100729.19
2024-04-06T14:00:47.217Z,100712.38
2024-04-06T14:03:14.322Z,100727.00
2024-04-06T14:05:41.542Z,100712.09
2024-04-06T14:08:08.746Z,100714.81
2024-04-06T14:10:35.867Z,100713.09
2024-04-06T14:13:03.064Z,100713.75
2024-04-06T14:15:30.186Z,100710.34
2024-04-06T14:17:59.838Z,100715.25
2024-04-06T14:20:27.376Z,100711.69
2024-04-06T14:22:54.522Z,100713.97
2024-04-06T14:25:21.956Z,100715.28
2024-04-06T14:27:49.224Z,100706.78
2024-04-06T14:30:45.576Z,100696.81
2024-04-06T14:33:15.266Z,100711.69
2024-04-06T14:35:42.458Z,100694.25
2024-04-06T14:38:10.039Z,100698.72
2024-04-06T14:40:37.163Z,100704.91
2024-04-06T14:43:04.733Z,100706.59
2024-04-06T14:45:31.881Z,100707.25
2024-04-06T14:47:59.066Z,100696.56
2024-04-06T14:50:28.727Z,100674.00
2024-04-06T14:52:55.828Z,100689.56
2024-04-06T14:55:23.125Z,100694.28
2024-04-06T14:57:50.297Z,100694.75
2024-04-06T15:00:18.132Z,100706.91
2024-04-06T15:02:45.320Z,100702.25
2024-04-06T15:05:12.494Z,100718.41
2024-04-06T15:07:42.137Z,100728.66
2024-04-06T15:10:09.664Z,100728.63
2024-04-06T15:12:36.853Z,100720.75
2024-04-06T15:15:05.831Z,100725.25
2024-04-06T15:17:35.046Z,100727.34
2024-04-06T15:20:02.462Z,100726.09
2024-04-06T15:22:29.579Z,100736.25
2024-04-06T15:24:59.191Z,100725.63
2024-04-06T15:27:26.318Z,100718.19
2024-04-06T15:29:53.409Z,100737.16
2024-04-06T15:32:20.664Z,100718.84
2024-04-06T15:34:47.789Z,100712.25
2024-04-06T15:37:16.713Z,100725.63
2024-04-06T15:39:43.984Z,100727.97
2024-04-06T15:42:15.515Z,100743.28
2024-04-06T15:44:42.749Z,100746.66
2024-04-06T15:47:09.890Z,100762.78
2024-04-06T15:49:37.042Z,100754.69
2024-04-06T15:52:04.665Z,100751.47
2024-04-06T15:54:31.773Z,100764.81
2024-04-06T15:56:59.562Z,100761.00
2024-04-06T15:59:29.135Z,100758.88
2024-04-06T16:01:57.057Z,100766.53
2024-04-06T16:04:25.515Z,100760.16
2024-04-06T16:06:54.050Z,100780.72
2024-04-06T16:09:22.925Z,100769.69
2024-04-06T16:11:52.463Z,100769.31
2024-04-06T16:14:19.590Z,100771.19
2024-04-06T16:16:49.226Z,100762.66
2024-04-06T16:19:16.316Z,100759.22
2024-04-06T16:21:43.635Z,100760.31
2024-04-06T16:24:10.802Z,100773.56
2024-04-06T16:26:37.945Z,100788.78
2024-04-06T16:29:05.100Z,100793.84
2024-04-06T16:31:33.200Z,100785.09
2024-04-06T16:34:02.662Z,100795.19
2024-04-06T16:36:29.796Z,100806.53
2024-04-06T16:38:56.895Z,100803.66
2024-04-06T16:41:24.803Z,100808.50
2024-04-06T16:43:52.031Z,100808.59
2024-04-06T16:46:19.823Z,100812.09
2024-04-06T16:48:46.943Z,100820.44
2024-04-06T16:51:16.618Z,100811.16
2024-04-06T16:53:43.917Z,100808.09
2024-04-06T16:56:11.330Z,100806.22
2024-04-06T16:58:38.454Z,100807.97
2024-04-06T17:01:05.598Z,100825.53
2024-04-06T17:03:32.772Z,100819.28
2024-04-06T17:06:00.967Z,100814.91
2024-04-06T17:08:30.573Z,100822.03
2024-04-06T17:10:57.683Z,100840.78
2024-04-06T17:13:25.328Z,100840.06
2024-04-06T17:15:52.452Z,100830.19
2024-04-06T17:18:19.611Z,100834.00
2024-04-06T17:20:46.731Z,100833.03
2024-04-06T17:23:14.967Z,100832.47
2024-04-06T17:25:44.373Z,100832.66
2024-04-06T17:28:11.511Z,100833.66
2024-04-06T17:30:39.439Z,100833.34
2024-04-06T17:33:06.875Z,100831.84
2024-04-06T17:35:34.094Z,100836.56
2024-04-06T17:38:01.955Z,100836.25
2024-04-06T17:40:29.230Z,100826.56
2024-04-06T17:42:58.813Z,100827.13
2024-04-06T17:45:26.549Z,100831.28
2024-04-06T17:47:53.778Z,100834.97
2024-04-06T17:50:21.399Z,100833.13
2024-04-06T17:52:48.612Z,100842.47
2024-04-06T17:55:17.170Z,100848.88
2024-04-06T17:57:44.532Z,100846.88
2024-04-06T18:00:15.944Z,100852.19
2024-04-06T18:02:44.767Z,100855.50
2024-04-06T18:05:11.887Z,100857.44
2024-04-06T18:07:39.008Z,100851.13
2024-04-06T18:10:08.846Z,100844.97
2024-04-06T18:12:36.086Z,100839.66
2024-04-06T18:15:04.586Z,100839.47
2024-04-06T18:17:34.170Z,100847.03
2024-04-06T18:20:01.333Z,100835.56
2024-04-06T18:22:28.764Z,100836.25
2024-04-06T18:24:57.448Z,100836.59
2024-04-06T18:27:27.163Z,100839.03
2024-04-06T18:29:54.556Z,100848.63
2024-04-06T18:32:21.917Z,100851.94
2024-04-06T18:34:54.028Z,100853.63
2024-04-06T18:37:21.208Z,100849.56
2024-04-06T18:39:51.050Z,100862.56
2024-04-06T18:42:18.238Z,100865.69
2024-04-06T18:44:45.395Z,100880.59
2024-04-06T18:47:12.639Z,100875.47
2024-04-06T18:49:40.026Z,100876.00
2024-04-06T18:52:09.663Z,100865.41
2024-04-06T18:54:36.812Z,100872.44
2024-04-06T18:57:04.220Z,100876.53
2024-04-06T18:59:31.311Z,100868.81
2024-04-06T19:01:58.451Z,100872.28
2024-04-06T19:04:28.021Z,100867.13
2024-04-06T19:06:56.044Z,100864.75
2024-04-06T19:09:27.177Z,100861.50
2024-04-06T19:11:54.988Z,100854.84
2024-04-06T19:14:22.174Z,100851.59
2024-04-06T19:16:52.798Z,100860.84
2024-04-06T19:19:19.892Z,100867.91
2024-04-06T19:21:47.449Z,100856.94
2024-04-06T19:24:14.641Z,100848.56
2024-04-06T19:26:44.548Z,100859.19
2024-04-06T19:29:12.947Z,100853.38
2024-04-06T19:31:41.692Z,100860.91
2024-04-06T19:34:10.550Z,100845.00
2024-04-06T19:36:37.877Z,100852.00
2024-04-06T19:39:08.374Z,100873.69
2024-04-06T19:41:35.996Z,100868.06
2024-04-06T19:44:05.808Z,100862.91
2024-04-06T19:46:33.010Z,100855.06
2024-04-06T19:49:00.116Z,100863.41
2024-04-06T19:51:27.312Z,100855.72
2024-04-06T19:53:54.412Z,100852.63
2024-04-06T19:56:21.567Z,100861.16
2024-04-06T19:58:50.322Z,100876.50
2024-04-06T20:01:20.639Z,100861.75
2024-04-06T20:03:47.756Z,100870.38
2024-04-06T20:06:14.868Z,100871.72
2024-04-06T20:08:42.009Z,100857.81
2024-04-06T20:11:09.895Z,100870.63
2024-04-06T20:13:37.787Z,100862.19
2024-04-06T20:16:05.336Z,100876.34
2024-04-06T20:18:34.940Z,100882.97
2024-04-06T20:21:03.732Z,100876.03
2024-04-06T20:23:49.655Z,100877.00
2024-04-06T20:26:16.552Z,100875.25
2024-04-06T20:28:44.270Z,100872.13
2024-04-06T20:31:12.393Z,100868.84
2024-04-06T20:33:42.027Z,100861.66
2024-04-06T20:36:09.372Z,100860.13
2024-04-06T20:38:36.486Z,100853.94
2024-04-06T20:41:04.017Z,100853.38
2024-04-06T20:43:31.144Z,100857.16
2024-04-06T20:45:58.355Z,100866.00
2024-04-06T20:50:55.446Z,100858.47
2024-04-06T20:53:22.647Z,100865.66
2024-04-06T20:55:50.231Z,100861.06
2024-04-06T20:58:17.387Z,100860.66
2024-04-06T21:00:44.664Z,100861.13
2024-04-06T21:03:12.080Z,100857.31
2024-04-06T21:05:39.157Z,100855.19
2024-04-06T21:08:08.963Z,100856.00
2024-04-06T21:10:36.819Z,100865.81
2024-04-06T21:13:04.807Z,100860.13
2024-04-06T21:15:31.944Z,100862.47
2024-04-06T21:17:59.147Z,100853.03
2024-04-06T21:20:26.360Z,100855.22
2024-04-06T21:22:54.213Z,100857.72
2024-04-06T21:25:23.897Z,100857.47
2024-04-06T21:27:51.024Z,100866.28
2024-04-06T21:30:18.571Z,100855.66
2024-04-06T21:32:48.056Z,100837.94
2024-04-06T21:35:16.327Z,100839.25
2024-04-06T21:37:46.795Z,100844.59
2024-04-06T21:40:14.070Z,100829.03
2024-04-06T21:42:44.670Z,100823.03
2024-04-06T21:45:13.912Z,100817.75
2024-04-06T21:47:41.033Z,100821.81
2024-04-06T21:50:08.753Z,100807.53
2024-04-06T21:52:35.905Z,100814.44
2024-04-06T21:55:04.036Z,100809.88
2024-04-06T21:57:31.247Z,100803.00
2024-04-06T22:00:00.827Z,100806.88
2024-04-06T22:02:27.938Z,100807.88
2024-04-06T22:04:55.083Z,100811.63
2024-04-06T22:07:22.192Z,100813.78
2024-04-06T22:09:49.384Z,100815.50
2024-04-06T22:12:16.541Z,100833.88
2024-04-06T22:14:44.577Z,100815.41
2024-04-06T22:17:14.217Z,100817.72
2024-04-06T22:19:41.949Z,100805.28
2024-04-06T22:22:09.198Z,100804.72
2024-04-06T22:24:36.374Z,100815.03
2024-04-06T22:27:04.728Z,100801.59
2024-04-06T22:29:34.319Z,100811.44
2024-04-06T22:32:01.500Z,100833.53
2024-04-06T22:34:31.346Z,100838.09
2024-04-06T22:36:58.470Z,100839.84
2024-04-06T22:39:25.561Z,100829.94
2024-04-06T22:41:52.760Z,100836.56
2024-04-06T22:44:20.919Z,100840.41
2024-04-06T22:46:48.193Z,100840.72
2024-04-06T22:49:16.190Z,100836.88
2024-04-06T22:51:45.892Z,100828.59
2024-04-06T22:54:13.576Z,100817.13
2024-04-06T22:56:40.821Z,100814.00
2024-04-06T22:59:07.910Z,100824.72
2024-04-06T23:01:35.575Z,100820.31
2024-04-06T23:04:02.706Z,100808.09
2024-04-06T23:06:29.858Z,100801.06
2024-04-06T23:08:59.476Z,100802.50
2024-04-06T23:11:26.596Z,100835.88
2024-04-06T23:13:53.871Z,100836.88
2024-04-06T23:16:21.107Z,100856.63
2024-04-06T23:18:48.195Z,100841.16
2024-04-06T23:21:15.270Z,100839.16
2024-04-06T23:23:42.396Z,100845.75
2024-04-06T23:26:11.958Z,100843.19
2024-04-06T23:28:39.143Z,100836.88
2024-04-06T23:31:06.649Z,100842.16
2024-04-06T23:33:34.294Z,100843.19
2024-04-06T23:36:04.153Z,100854.50
2024-04-06T23:38:31.512Z,100847.34
2024-04-06T23:40:59.735Z,100856.50
2024-04-06T23:43:29.385Z,100859.38
2024-04-06T23:45:56.910Z,100867.84
2024-04-06T23:48:24.128Z,100867.84
2024-04-06T23:50:54.292Z,100877.72
2024-04-06T23:53:21.554Z,100877.00
2024-04-06T23:55:48.751Z,100872.28
2024-04-06T23:58:15.990Z,100885.00
